Time;durP1;ratioP1;P1;durP2;ratioP2;P2;SDS_P1;SDS_P2;PMS_P1;PMS_P2;Temp;Humidity;BMP_temperature;BMP_pressure;BME280_temperature;BME280_humidity;BME280_pressure;Samples;Min_cycle;Max_cycle;Signal;HPM_P1;HPM_P2
2023/10/11 00:01:23;;;;;;;10.23;5.23;;;;;17.00;100932.00;;;;5017447;28;20214;-73
2023/10/11 00:04:23;;;;;;;8.97;5.33;;;;;17.10;100933.00;;;;5018847;28;20355;-72
2023/10/11 00:07:10;;;;;;;9.20;5.60;;;;;17.20;100926.00;;;;5026621;28;20279;-72
2023/10/11 00:09:57;;;;;;;12.50;5.37;;;;;17.10;100929.00;;;;5019240;28;20269;-72
2023/10/11 00:12:43;;;;;;;11.50;5.10;;;;;17.10;100925.00;;;;5020183;28;20234;-72
2023/10/11 00:15:30;;;;;;;11.27;5.10;;;;;17.10;100923.00;;;;5025194;28;20931;-72
2023/10/11 00:18:18;;;;;;;11.07;5.20;;;;;17.00;100917.00;;;;5023061;28;20225;-72
2023/10/11 00:21:10;;;;;;;9.80;5.53;;;;;17.00;100919.00;;;;5019637;28;20994;-72
2023/10/11 00:23:57;;;;;;;11.23;5.50;;;;;17.10;100911.00;;;;5020755;28;20237;-72
2023/10/11 00:26:44;;;;;;;9.17;5.03;;;;;17.10;100908.00;;;;5027212;28;20213;-73
2023/10/11 00:29:30;;;;;;;12.77;5.50;;;;;17.10;100900.00;;;;5025844;28;20225;-74
2023/10/11 00:32:17;;;;;;;12.67;5.57;;;;;17.20;100910.00;;;;5015947;28;20230;-72
2023/10/11 00:35:04;;;;;;;9.13;4.60;;;;;17.10;100912.00;;;;5021850;28;20217;-73
2023/10/11 00:37:53;;;;;;;16.03;6.10;;;;;17.10;100908.00;;;;5020331;28;20863;-73
2023/10/11 00:40:43;;;;;;;9.13;5.47;;;;;17.00;100911.00;;;;5019126;28;20722;-72
2023/10/11 00:43:34;;;;;;;13.17;5.60;;;;;17.10;100910.00;;;;5020442;28;20312;-73
2023/10/11 00:46:22;;;;;;;13.50;5.40;;;;;17.30;100898.00;;;;5026305;28;20217;-73
2023/10/11 00:49:11;;;;;;;9.67;5.17;;;;;17.20;100898.00;;;;5026482;28;20624;-72
2023/10/11 00:51:58;;;;;;;11.30;5.30;;;;;17.20;100899.00;;;;5024343;28;20225;-74
2023/10/11 00:54:46;;;;;;;10.93;5.30;;;;;17.20;100897.00;;;;5019763;28;20585;-72
2023/10/11 00:57:32;;;;;;;13.00;5.23;;;;;17.20;100896.00;;;;5019975;28;20438;-72
2023/10/11 01:00:21;;;;;;;17.37;5.50;;;;;17.10;100891.00;;;;5029384;28;20590;-71
2023/10/11 01:03:08;;;;;;;10.03;5.10;;;;;17.10;100896.00;;;;5023551;28;20365;-72
2023/10/11 01:05:55;;;;;;;12.17;5.00;;;;;17.10;100893.00;;;;5023101;28;20691;-72
2023/10/11 01:08:41;;;;;;;10.50;5.57;;;;;17.10;100898.00;;;;5023670;28;20209;-71
2023/10/11 01:11:29;;;;;;;12.93;5.83;;;;;17.20;100886.00;;;;5025858;28;20272;-73
2023/10/11 01:14:16;;;;;;;10.30;5.30;;;;;17.10;100896.00;;;;5023496;28;20230;-72
2023/10/11 01:17:02;;;;;;;12.17;5.07;;;;;17.10;100887.00;;;;5024232;28;20914;-73
2023/10/11 01:19:51;;;;;;;10.07;5.13;;;;;17.00;100883.00;;;;5029501;28;20213;-73
2023/10/11 01:22:39;;;;;;;12.53;6.40;;;;;17.10;100881.00;;;;5029583;28;20241;-72
2023/10/11 01:25:25;;;;;;;11.63;5.57;;;;;17.10;100878.00;;;;5024176;28;20218;-73
2023/10/11 01:28:11;;;;;;;14.47;5.63;;;;;17.10;100876.00;;;;5030083;28;20218;-73
2023/10/11 01:30:58;;;;;;;12.07;5.43;;;;;17.10;100874.00;;;;5026895;28;20796;-71
2023/10/11 01:33:49;;;;;;;11.87;5.63;;;;;17.10;100881.00;;;;5030342;28;20233;-73
2023/10/11 01:36:39;;;;;;;11.07;5.30;;;;;17.10;100875.00;;;;5028663;28;20217;-72
2023/10/11 01:39:27;;;;;;;10.70;5.43;;;;;17.10;100877.00;;;;5027637;28;20251;-72
2023/10/11 01:42:14;;;;;;;13.60;5.57;;;;;17.00;100874.00;;;;5026454;28;20218;-72
2023/10/11 01:45:03;;;;;;;12.87;6.10;;;;;17.10;100872.00;;;;5024357;28;20222;-74
2023/10/11 01:47:50;;;;;;;14.23;5.43;;;;;17.10;100868.00;;;;5016997;28;20980;-74
2023/10/11 01:50:37;;;;;;;14.30;5.60;;;;;17.10;100856.00;;;;5028264;28;20230;-72
2023/10/11 01:53:24;;;;;;;17.40;5.73;;;;;17.10;100848.00;;;;5019866;28;20907;-72
2023/10/11 01:56:13;;;;;;;12.63;5.37;;;;;17.10;100859.00;;;;5029977;28;20209;-74
2023/10/11 01:59:01;;;;;;;13.20;5.40;;;;;17.00;100857.00;;;;5020061;28;20911;-73
2023/10/11 02:01:58;;;;;;;13.50;5.67;;;;;17.00;100846.00;;;;5028533;28;20217;-72
2023/10/11 02:04:45;;;;;;;12.10;5.63;;;;;16.90;100853.00;;;;5023428;28;20210;-73
2023/10/11 02:07:31;;;;;;;11.43;5.93;;;;;16.80;100858.00;;;;5028779;28;20214;-71
2023/10/11 02:10:26;;;;;;;10.30;5.73;;;;;16.90;100850.00;;;;5026501;28;20276;-72
2023/10/11 02:13:15;;;;;;;13.30;5.60;;;;;16.90;100855.00;;;;5023944;28;20229;-72
2023/10/11 02:16:01;;;;;;;13.47;5.30;;;;;16.80;100852.00;;;;5023043;28;20695;-73
2023/10/11 02:18:51;;;;;;;14.53;5.60;;;;;16.80;100847.00;;;;5025829;28;20213;-72
2023/10/11 02:21:43;;;;;;;17.33;6.20;;;;;16.80;100836.00;;;;5027902;28;20288;-72
2023/10/11 02:24:30;;;;;;;11.77;5.20;;;;;16.90;100846.00;;;;5027010;28;20212;-72
2023/10/11 02:27:17;;;;;;;11.40;5.20;;;;;16.90;100844.00;;;;5023742;28;20213;-73
2023/10/11 02:30:12;;;;;;;12.53;5.50;;;;;16.90;100844.00;;;;5025760;28;20210;-72
2023/10/11 02:32:59;;;;;;;12.97;5.37;;;;;16.90;100843.00;;;;5028492;28;20256;-73
2023/10/11 02:35:53;;;;;;;12.30;5.40;;;;;16.80;100850.00;;;;5027682;28;20229;-72
2023/10/11 02:38:47;;;;;;;9.10;5.37;;;;;16.80;100855.00;;;;5028564;28;20221;-72
2023/10/11 02:41:37;;;;;;;10.17;5.17;;;;;16.90;100831.00;;;;5023756;28;20219;-74
2023/10/11 02:44:23;;;;;;;8.10;4.70;;;;;16.90;100832.00;;;;5023590;28;20269;-71
2023/10/11 02:47:11;;;;;;;8.40;5.10;;;;;16.80;100839.00;;;;5028200;28;20209;-74
2023/10/11 02:50:04;;;;;;;9.60;5.50;;;;;16.70;100844.00;;;;5022424;28;20614;-72
2023/10/11 02:52:58;;;;;;;12.43;5.33;;;;;16.60;100844.00;;;;5022211;28;20287;-73
2023/10/11 02:55:45;;;;;;;12.10;5.70;;;;;16.60;100830.00;;;;5026452;28;20682;-72
2023/10/11 02:58:32;;;;;;;10.23;5.27;;;;;16.70;100828.00;;;;5022651;28;20353;-71
2023/10/11 03:01:20;;;;;;;9.13;5.13;;;;;16.70;100832.00;;;;5021104;28;20869;-72
2023/10/11 03:04:15;;;;;;;8.97;5.10;;;;;16.60;100837.00;;;;5015574;28;20349;-72
2023/10/11 03:07:02;;;;;;;11.83;5.47;;;;;16.60;100835.00;;;;5028325;28;20205;-71
2023/10/11 03:09:49;;;;;;;10.57;4.93;;;;;16.60;100837.00;;;;5023216;28;20237;-73
2023/10/11 03:12:38;;;;;;;10.40;5.43;;;;;16.50;100827.00;;;;5026176;28;20637;-72
2023/10/11 03:15:25;;;;;;;10.03;5.73;;;;;16.40;100830.00;;;;5025417;28;20424;-73
2023/10/11 03:18:12;;;;;;;8.60;5.20;;;;;16.30;100833.00;;;;5025535;28;20572;-72
2023/10/11 03:21:16;;;;;;;13.03;5.63;;;;;16.20;100827.00;;;;5023143;28;20328;-73
2023/10/11 03:24:05;;;;;;;16.80;5.43;;;;;16.20;100832.00;;;;5021137;28;20595;-72
2023/10/11 03:26:51;;;;;;;8.73;5.27;;;;;16.20;100831.00;;;;5023630;28;20209;-72
2023/10/11 03:29:40;;;;;;;10.30;5.57;;;;;16.20;100822.00;;;;5027803;28;20723;-74
2023/10/11 03:32:26;;;;;;;12.63;5.80;;;;;16.20;100824.00;;;;5023878;28;20283;-71
2023/10/11 03:35:16;;;;;;;9.87;5.47;;;;;16.20;100828.00;;;;5024461;28;20332;-73
2023/10/11 03:38:06;;;;;;;9.77;5.53;;;;;16.20;100843.00;;;;5027493;28;20234;-73
2023/10/11 03:40:55;;;;;;;11.80;5.90;;;;;16.10;100834.00;;;;5020235;28;20296;-73
2023/10/11 03:43:42;;;;;;;10.20;5.10;;;;;16.20;100830.00;;;;5019770;28;20231;-72
2023/10/11 03:46:33;;;;;;;11.23;6.10;;;;;16.20;100833.00;;;;5027572;28;20292;-73
2023/10/11 03:49:47;;;;;;;12.20;5.73;;;;;16.30;100826.00;;;;5020612;28;20254;-72
2023/10/11 03:52:34;;;;;;;13.37;5.80;;;;;16.30;100819.00;;;;5026510;28;20265;-73
2023/10/11 03:55:21;;;;;;;11.53;5.40;;;;;16.30;100815.00;;;;5027264;28;20717;-72
2023/10/11 03:58:08;;;;;;;11.90;5.50;;;;;16.20;100813.00;;;;5026805;28;20201;-73
2023/10/11 04:01:00;;;;;;;11.87;5.23;;;;;16.20;100812.00;;;;5026269;28;20706;-74
2023/10/11 04:03:49;;;;;;;13.13;5.87;;;;;16.10;100825.00;;;;5025255;28;20241;-72
2023/10/11 04:06:35;;;;;;;15.13;5.80;;;;;16.00;100817.00;;;;5024076;28;20360;-72
2023/10/11 04:09:32;;;;;;;12.50;5.70;;;;;16.00;100821.00;;;;5026650;28;20217;-72
2023/10/11 04:12:24;;;;;;;10.63;5.47;;;;;16.00;100817.00;;;;5025233;28;20240;-73
2023/10/11 04:15:24;;;;;;;14.10;5.87;;;;;16.10;100822.00;;;;5014492;28;20771;-72
2023/10/11 04:18:20;;;;;;;10.23;5.60;;;;;16.00;100818.00;;;;5016076;28;20296;-73
2023/10/11 04:21:26;;;;;;;9.80;5.47;;;;;16.10;100815.00;;;;5018550;28;20313;-72
2023/10/11 04:24:19;;;;;;;13.90;5.93;;;;;16.10;100809.00;;;;5020902;28;20229;-71
2023/10/11 04:27:45;;;;;;;17.50;6.23;;;;;16.10;100813.00;;;;5019234;28;20236;-71
2023/10/11 04:30:27;;;;;;;9.87;5.23;;;;;16.20;100803.00;;;;5027158;28;20229;-72
2023/10/11 04:33:20;;;;;;;10.07;5.93;;;;;16.20;100804.00;;;;5019428;28;20819;-73
2023/10/11 04:36:07;;;;;;;11.43;5.27;;;;;16.20;100803.00;;;;5015199;28;20211;-73
2023/10/11 04:39:02;;;;;;;13.73;5.90;;;;;16.10;100807.00;;;;5022775;28;20292;-72
2023/10/11 04:41:50;;;;;;;12.80;6.17;;;;;16.00;100804.00;;;;5024525;28;20329;-74
2023/10/11 04:44:42;;;;;;;11.67;5.87;;;;;16.00;100808.00;;;;5031163;28;20280;-73
2023/10/11 04:47:50;;;;;;;8.53;5.00;;;;;16.00;100811.00;;;;5023947;28;20582;-72
2023/10/11 04:50:43;;;;;;;9.70;5.47;;;;;16.00;100810.00;;;;5025947;28;20820;-73
2023/10/11 04:53:33;;;;;;;14.97;6.10;;;;;15.90;100822.00;;;;5017774;28;20234;-74
2023/10/11 04:59:27;;;;;;;12.33;5.87;;;;;15.90;100814.00;;;;5025552;28;20217;-72
2023/10/11 05:02:23;;;;;;;12.03;6.30;;;;;15.90;100812.00;;;;5020423;28;20214;-72
2023/10/11 05:05:12;;;;;;;13.47;5.80;;;;;15.90;100805.00;;;;5024846;28;20213;-72
2023/10/11 05:08:05;;;;;;;14.53;6.43;;;;;15.90;100802.00;;;;5026597;28;20208;-73
2023/10/11 05:10:52;;;;;;;13.57;6.30;;;;;15.90;100804.00;;;;5026371;28;20214;-72
2023/10/11 05:13:41;;;;;;;14.37;6.37;;;;;15.90;100814.00;;;;5028838;28;20264;-72
2023/10/11 05:16:29;;;;;;;10.87;6.00;;;;;15.90;100807.00;;;;5023606;28;20253;-73
2023/10/11 05:19:20;;;;;;;14.40;5.70;;;;;15.90;100794.00;;;;5020776;28;20214;-74
2023/10/11 05:22:16;;;;;;;10.10;5.90;;;;;15.80;100794.00;;;;5024560;28;20210;-73
2023/10/11 05:25:37;;;;;;;13.93;5.80;;;;;15.70;100796.00;;;;5028674;28;20229;-73
2023/10/11 05:28:28;;;;;;;18.10;6.07;;;;;15.80;100802.00;;;;5028590;28;20361;-72
2023/10/11 05:31:22;;;;;;;11.90;6.07;;;;;15.80;100798.00;;;;5023562;28;20205;-72
2023/10/11 05:52:37;;;;;;;17.87;6.20;;;;;15.80;100797.00;;;;5028597;28;20256;-72
2023/10/11 05:55:24;;;;;;;15.30;5.30;;;;;15.80;100789.00;;;;5027417;28;20233;-74
2023/10/11 05:58:13;;;;;;;13.33;5.87;;;;;15.90;100795.00;;;;5023232;28;20218;-74
2023/10/11 06:01:06;;;;;;;10.03;5.60;;;;;15.90;100788.00;;;;5025085;28;20296;-75
2023/10/11 06:03:55;;;;;;;9.93;5.50;;;;;15.90;100780.00;;;;5022426;28;20909;-75
2023/10/11 06:06:42;;;;;;;12.83;5.50;;;;;16.00;100792.00;;;;5021914;28;20278;-74
2023/10/11 06:09:30;;;;;;;11.73;5.37;;;;;15.90;100791.00;;;;5018195;28;20209;-74
2023/10/11 06:12:27;;;;;;;11.40;5.67;;;;;15.90;100788.00;;;;5021781;28;20333;-73
2023/10/11 06:15:19;;;;;;;10.53;5.90;;;;;15.90;100801.00;;;;5024022;28;20209;-74
2023/10/11 06:18:08;;;;;;;13.53;5.73;;;;;16.00;100793.00;;;;5025598;28;20268;-74
2023/10/11 06:21:01;;;;;;;11.93;5.77;;;;;16.00;100810.00;;;;5025113;28;20255;-73
2023/10/11 06:23:51;;;;;;;10.87;5.70;;;;;16.10;100813.00;;;;5028856;28;20240;-71
2023/10/11 06:26:55;;;;;;;14.50;5.60;;;;;16.20;100795.00;;;;5026995;28;20236;-73
2023/10/11 06:29:45;;;;;;;13.93;5.50;;;;;16.30;100802.00;;;;5024968;28;20225;-72
2023/10/11 06:32:32;;;;;;;11.47;5.30;;;;;16.30;100809.00;;;;5028408;28;20229;-73
2023/10/11 06:35:23;;;;;;;14.40;5.47;;;;;16.20;100803.00;;;;5028636;28;20221;-71
2023/10/11 06:38:12;;;;;;;7.70;5.50;;;;;16.30;100816.00;;;;5024958;28;20213;-70
2023/10/11 06:41:36;;;;;;;15.63;5.73;;;;;16.40;100808.00;;;;5018086;28;20210;-71
2023/10/11 06:44:18;;;;;;;13.10;5.50;;;;;16.50;100811.00;;;;5021141;28;20240;-71
2023/10/11 06:47:04;;;;;;;11.23;5.43;;;;;16.50;100799.00;;;;5024781;28;20205;-70
2023/10/11 06:49:54;;;;;;;11.93;4.80;;;;;16.60;100806.00;;;;5014619;28;20222;-70
2023/10/11 06:52:43;;;;;;;12.93;5.03;;;;;16.80;100804.00;;;;5027315;28;20723;-71
2023/10/11 06:55:32;;;;;;;9.70;4.90;;;;;16.90;100797.00;;;;5024381;28;20269;-69
2023/10/11 06:58:19;;;;;;;12.67;5.10;;;;;16.90;100797.00;;;;5021637;28;20217;-71
2023/10/11 07:01:10;;;;;;;11.47;5.27;;;;;17.00;100802.00;;;;5025194;28;20210;-69
2023/10/11 07:03:57;;;;;;;10.97;5.30;;;;;17.00;100800.00;;;;5028255;28;20295;-69
2023/10/11 07:06:43;;;;;;;15.03;5.07;;;;;17.10;100797.00;;;;5022790;28;20208;-69
2023/10/11 07:09:29;;;;;;;12.90;4.80;;;;;17.20;100812.00;;;;5014673;28;20214;-72
2023/10/11 07:12:39;;;;;;;12.30;5.10;;;;;17.20;100805.00;;;;5026598;28;20214;-72
2023/10/11 07:15:25;;;;;;;12.17;5.03;;;;;17.30;100795.00;;;;5020150;28;20217;-72
2023/10/11 07:18:21;;;;;;;16.90;5.23;;;;;17.30;100798.00;;;;5027465;28;20738;-71
2023/10/11 07:21:09;;;;;;;12.43;4.70;;;;;17.40;100804.00;;;;5021799;28;20281;-71
2023/10/11 07:24:04;;;;;;;14.30;5.43;;;;;17.40;100806.00;;;;5021412;28;20321;-73
2023/10/11 07:26:56;;;;;;;12.17;5.07;;;;;17.50;100803.00;;;;5022365;28;20202;-72
2023/10/11 07:29:42;;;;;;;12.57;4.93;;;;;17.50;100811.00;;;;5015070;28;20291;-72
2023/10/11 07:32:36;;;;;;;11.87;4.70;;;;;17.50;100806.00;;;;5014751;28;20234;-72
2023/10/11 07:35:27;;;;;;;10.67;4.87;;;;;17.70;100810.00;;;;5017583;28;20246;-72
2023/10/11 07:38:15;;;;;;;9.67;5.33;;;;;17.70;100822.00;;;;5021251;28;20257;-72
2023/10/11 07:41:05;;;;;;;12.77;4.83;;;;;17.70;100821.00;;;;5022037;28;20206;-71
2023/10/11 07:43:54;;;;;;;11.33;4.73;;;;;17.80;100822.00;;;;5020574;28;20309;-72
2023/10/11 07:46:43;;;;;;;13.17;4.80;;;;;17.90;100823.00;;;;5015190;28;20205;-75
2023/10/11 07:49:37;;;;;;;10.43;5.03;;;;;17.90;100828.00;;;;5024614;28;20210;-71
2023/10/11 07:52:25;;;;;;;13.20;4.90;;;;;17.90;100830.00;;;;5021198;28;20299;-72
2023/10/11 07:55:12;;;;;;;12.77;5.40;;;;;18.00;100837.00;;;;5025524;28;20287;-72
2023/10/11 07:58:02;;;;;;;8.40;4.90;;;;;18.10;100827.00;;;;5027275;28;20283;-72
2023/10/11 08:00:51;;;;;;;11.93;4.77;;;;;18.10;100828.00;;;;5021561;28;20241;-72
2023/10/11 08:03:44;;;;;;;9.37;4.50;;;;;18.20;100838.00;;;;5021859;28;20589;-73
2023/10/11 08:06:31;;;;;;;11.03;4.97;;;;;18.20;100844.00;;;;5023365;28;20273;-73
2023/10/11 08:09:19;;;;;;;12.47;4.80;;;;;18.30;100835.00;;;;5025165;28;20237;-72
2023/10/11 08:12:08;;;;;;;13.27;5.07;;;;;18.30;100826.00;;;;5022361;28;20708;-73
2023/10/11 08:14:56;;;;;;;14.17;4.90;;;;;18.40;100825.00;;;;5025329;28;20233;-73
2023/10/11 08:17:44;;;;;;;13.20;5.00;;;;;18.60;100834.00;;;;5022076;28;20201;-71
2023/10/11 08:20:31;;;;;;;11.80;4.77;;;;;18.60;100834.00;;;;5019045;28;20210;-72
2023/10/11 08:23:28;;;;;;;11.83;4.80;;;;;18.60;100828.00;;;;5021107;28;20233;-72
2023/10/11 08:26:17;;;;;;;10.77;4.67;;;;;18.60;100834.00;;;;5023474;28;20319;-71
2023/10/11 08:29:14;;;;;;;9.60;4.63;;;;;18.60;100831.00;;;;5024065;28;20209;-72
2023/10/11 08:32:06;;;;;;;14.00;4.60;;;;;18.70;100839.00;;;;5024000;28;20300;-73
2023/10/11 08:34:52;;;;;;;12.53;4.10;;;;;18.70;100838.00;;;;5021651;28;20219;-73
2023/10/11 08:37:39;;;;;;;10.23;4.90;;;;;18.80;100845.00;;;;5026162;28;20219;-72
2023/10/11 08:40:29;;;;;;;10.00;4.67;;;;;18.90;100846.00;;;;5020094;28;20251;-73
2023/10/11 08:43:22;;;;;;;8.53;4.50;;;;;18.90;100830.00;;;;5025690;28;20245;-73
2023/10/11 08:46:11;;;;;;;10.13;4.80;;;;;18.90;100836.00;;;;5026326;28;20333;-73
2023/10/11 08:49:00;;;;;;;10.00;4.83;;;;;18.90;100849.00;;;;5019605;28;20209;-73
2023/10/11 08:51:51;;;;;;;11.57;4.97;;;;;19.00;100848.00;;;;5019209;28;20229;-73
2023/10/11 08:54:37;;;;;;;11.17;4.70;;;;;19.10;100825.00;;;;5023342;28;20244;-73
2023/10/11 08:57:25;;;;;;;8.80;4.63;;;;;19.20;100833.00;;;;5024928;28;20288;-73
2023/10/11 09:00:28;;;;;;;13.23;4.63;;;;;19.30;100832.00;;;;5023133;28;20211;-73
2023/10/11 09:03:21;;;;;;;9.97;4.40;;;;;19.40;100827.00;;;;5019715;28;20578;-73
2023/10/11 09:06:21;;;;;;;17.00;4.90;;;;;19.50;100825.00;;;;5014514;28;20215;-73
2023/10/11 09:09:14;;;;;;;13.83;4.63;;;;;19.50;100846.00;;;;5026485;28;20700;-72
2023/10/11 09:12:20;;;;;;;10.83;5.07;;;;;19.60;100835.00;;;;5022077;28;20213;-71
2023/10/11 09:15:14;;;;;;;12.33;5.10;;;;;19.70;100836.00;;;;5022789;28;20870;-73
2023/10/11 09:18:13;;;;;;;8.37;4.50;;;;;19.80;100827.00;;;;5026881;28;20223;-73
2023/10/11 09:21:09;;;;;;;11.30;4.83;;;;;19.80;100837.00;;;;5023732;28;20231;-73
2023/10/11 09:23:55;;;;;;;11.27;4.90;;;;;19.90;100829.00;;;;5030388;28;20244;-73
2023/10/11 09:26:42;;;;;;;10.77;4.37;;;;;19.90;100822.00;;;;5029422;28;20230;-73
2023/10/11 09:29:30;;;;;;;10.67;4.80;;;;;19.90;100816.00;;;;5030330;28;20259;-73
2023/10/11 09:32:19;;;;;;;10.77;4.77;;;;;19.90;100811.00;;;;5019488;28;20219;-71
2023/10/11 09:35:23;;;;;;;8.23;4.70;;;;;20.00;100823.00;;;;5026907;28;20824;-73
2023/10/11 09:38:10;;;;;;;9.03;4.40;;;;;20.20;100822.00;;;;5025149;28;21017;-73
2023/10/11 09:40:57;;;;;;;10.27;4.70;;;;;20.30;100838.00;;;;5029931;28;20220;-73
2023/10/11 09:43:44;;;;;;;13.87;4.60;;;;;20.30;100827.00;;;;5030274;28;20722;-73
2023/10/11 09:46:34;;;;;;;11.17;4.23;;;;;20.50;100833.00;;;;5029468;28;20208;-74
2023/10/11 09:49:25;;;;;;;7.93;4.47;;;;;20.50;100843.00;;;;5029185;28;20224;-73
2023/10/11 09:52:16;;;;;;;11.07;4.33;;;;;20.50;100844.00;;;;5029244;28;20278;-71
2023/10/11 09:55:14;;;;;;;11.30;4.73;;;;;20.60;100837.00;;;;5021059;28;20823;-72
2023/10/11 09:58:11;;;;;;;9.70;4.60;;;;;20.60;100833.00;;;;5019743;28;20216;-73
2023/10/11 10:01:08;;;;;;;11.17;4.40;;;;;20.70;100832.00;;;;5023743;28;20221;-74
2023/10/11 10:03:55;;;;;;;8.13;4.30;;;;;20.80;100833.00;;;;5021584;28;20776;-72
2023/10/11 10:07:13;;;;;;;10.50;4.73;;;;;21.00;100843.00;;;;5022255;28;20213;-72
2023/10/11 10:10:00;;;;;;;17.20;4.60;;;;;21.00;100859.00;;;;5024577;28;20216;-73
2023/10/11 10:12:57;;;;;;;12.30;4.77;;;;;21.00;100864.00;;;;5021712;28;20236;-73
2023/10/11 10:15:49;;;;;;;8.67;4.93;;;;;20.90;100861.00;;;;5026552;28;20229;-69
2023/10/11 10:18:39;;;;;;;11.53;4.83;;;;;20.70;100866.00;;;;5029277;28;20267;-72
2023/10/11 10:21:26;;;;;;;13.47;4.93;;;;;20.70;100859.00;;;;5029196;28;20221;-72
2023/10/11 10:24:31;;;;;;;10.93;4.60;;;;;20.80;100857.00;;;;5025596;28;20245;-71
2023/10/11 10:27:37;;;;;;;10.27;4.33;;;;;21.10;100864.00;;;;5019005;28;20338;-74
2023/10/11 10:30:27;;;;;;;10.07;4.17;;;;;21.20;100852.00;;;;5021490;28;20396;-71
2023/10/11 10:33:22;;;;;;;9.97;4.80;;;;;21.30;100853.00;;;;5027835;28;20300;-71
2023/10/11 10:36:37;;;;;;;10.73;4.40;;;;;21.40;100839.00;;;;5021738;28;20598;-72
2023/10/11 10:39:47;;;;;;;7.40;4.57;;;;;21.50;100830.00;;;;5026303;28;20210;-72
2023/10/11 10:42:35;;;;;;;9.60;4.67;;;;;21.60;100831.00;;;;5026820;28;20252;-72
2023/10/11 10:45:26;;;;;;;9.30;4.03;;;;;21.70;100825.00;;;;5026285;28;20725;-72
2023/10/11 10:48:14;;;;;;;9.67;4.47;;;;;21.80;100818.00;;;;5025279;28;20605;-73
2023/10/11 10:51:04;;;;;;;10.63;4.67;;;;;21.90;100830.00;;;;5028370;28;20743;-72
2023/10/11 10:53:50;;;;;;;9.13;4.40;;;;;22.00;100857.00;;;;5024210;28;20366;-73
2023/10/11 10:56:37;;;;;;;13.93;4.40;;;;;22.00;100853.00;;;;5027553;28;20221;-72
2023/10/11 10:59:26;;;;;;;10.10;4.53;;;;;22.20;100852.00;;;;5028332;28;20202;-74
2023/10/11 11:02:12;;;;;;;10.13;4.77;;;;;22.40;100854.00;;;;5021522;28;20252;-72
2023/10/11 11:05:00;;;;;;;7.93;4.37;;;;;22.40;100850.00;;;;5021817;28;20221;-72
2023/10/11 11:07:48;;;;;;;8.33;4.27;;;;;22.40;100848.00;;;;5025962;28;20217;-71
2023/10/11 11:10:33;;;;;;;17.30;4.60;;;;;22.40;100845.00;;;;5028041;28;20805;-72
2023/10/11 11:13:19;;;;;;;9.30;4.60;;;;;22.50;100859.00;;;;5027368;28;20938;-71
2023/10/11 11:16:16;;;;;;;13.63;5.43;;;;;22.60;100853.00;;;;5021678;28;20233;-71
2023/10/11 11:19:11;;;;;;;10.80;4.77;;;;;22.80;100852.00;;;;5021680;28;20687;-72
2023/10/11 11:22:11;;;;;;;12.53;4.73;;;;;22.90;100854.00;;;;5025693;28;20371;-71
2023/10/11 11:25:16;;;;;;;9.27;4.60;;;;;22.80;100849.00;;;;5028196;28;20217;-72
2023/10/11 11:28:04;;;;;;;10.93;4.63;;;;;22.80;100847.00;;;;5025454;28;20213;-72
2023/10/11 11:31:10;;;;;;;7.33;4.30;;;;;22.80;100838.00;;;;5017676;28;20261;-74
2023/10/11 11:34:11;;;;;;;9.40;4.40;;;;;22.80;100837.00;;;;5024123;28;20228;-71
2023/10/11 11:37:00;;;;;;;9.30;4.97;;;;;22.90;100849.00;;;;5021171;28;20336;-74
2023/10/11 11:43:03;;;;;;;8.87;4.33;;;;;23.10;100850.00;;;;5027481;28;20241;-73
2023/10/11 11:45:56;;;;;;;9.17;4.80;;;;;23.20;100857.00;;;;5027738;28;20691;-73
2023/10/11 11:48:43;;;;;;;11.63;5.60;;;;;23.30;100847.00;;;;5027171;28;20610;-72
2023/10/11 11:51:30;;;;;;;10.27;5.23;;;;;23.30;100852.00;;;;5025347;28;20889;-74
2023/10/11 11:54:18;;;;;;;8.27;4.67;;;;;23.20;100844.00;;;;5025301;28;20233;-73
2023/10/11 11:57:07;;;;;;;10.87;4.80;;;;;23.20;100846.00;;;;5020922;28;20589;-72
2023/10/11 11:59:53;;;;;;;12.40;5.07;;;;;23.20;100838.00;;;;5026332;28;20820;-72
2023/10/11 12:02:40;;;;;;;14.87;5.13;;;;;23.20;100830.00;;;;5023085;28;20240;-73
2023/10/11 12:05:27;;;;;;;9.10;5.07;;;;;23.20;100824.00;;;;5027499;28;20265;-73
2023/10/11 12:08:19;;;;;;;8.67;5.10;;;;;23.40;100824.00;;;;5022217;28;20724;-73
2023/10/11 12:11:05;;;;;;;12.93;5.00;;;;;23.60;100797.00;;;;5025501;28;20218;-73
2023/10/11 12:13:51;;;;;;;8.57;5.07;;;;;23.60;100800.00;;;;5026214;28;20987;-73
2023/10/11 12:16:42;;;;;;;11.20;4.83;;;;;23.70;100796.00;;;;5026873;28;20305;-73
2023/10/11 12:19:32;;;;;;;12.80;5.30;;;;;23.70;100812.00;;;;5023730;28;20233;-72
2023/10/11 12:22:21;;;;;;;14.20;5.43;;;;;23.80;100800.00;;;;5022741;28;20252;-73
2023/10/11 12:25:10;;;;;;;12.80;5.13;;;;;23.80;100806.00;;;;5023539;28;20209;-73
2023/10/11 12:27:59;;;;;;;10.97;5.23;;;;;23.80;100788.00;;;;5012473;28;20214;-71
2023/10/11 12:30:48;;;;;;;12.02;5.60;;;;;23.70;100771.00;;;;5026554;28;20218;-72
2023/10/11 12:33:35;;;;;;;10.50;5.63;;;;;23.60;100759.00;;;;5024414;28;20261;-72
2023/10/11 12:36:21;;;;;;;10.30;5.30;;;;;23.70;100773.00;;;;5022594;28;20222;-72
2023/10/11 12:39:20;;;;;;;12.00;5.00;;;;;23.70;100785.00;;;;5017006;28;20293;-73
2023/10/11 12:42:11;;;;;;;8.55;5.13;;;;;23.80;100781.00;;;;5024043;28;20201;-73
2023/10/11 12:44:59;;;;;;;12.70;4.90;;;;;23.90;100774.00;;;;5019623;28;20213;-72
2023/10/11 12:47:45;;;;;;;11.35;5.00;;;;;24.10;100784.00;;;;5017064;28;20218;-72
2023/10/11 12:50:36;;;;;;;9.93;4.87;;;;;24.10;100772.00;;;;5023552;28;20260;-72
2023/10/11 12:53:23;;;;;;;12.10;4.75;;;;;24.10;100776.00;;;;5019445;28;20288;-73
2023/10/11 12:56:10;;;;;;;10.10;5.07;;;;;24.10;100764.00;;;;5019579;28;20770;-72
2023/10/11 12:58:58;;;;;;;11.93;5.23;;;;;24.10;100751.00;;;;5023358;28;20686;-72
2023/10/11 13:01:50;;;;;;;12.37;5.27;;;;;24.20;100772.00;;;;5024901;28;20723;-72
2023/10/11 13:04:41;;;;;;;9.20;4.40;;;;;24.20;100777.00;;;;5026671;28;20214;-72
2023/10/11 13:07:27;;;;;;;10.20;5.20;;;;;24.20;100774.00;;;;5030644;28;20285;-75
2023/10/11 13:10:15;;;;;;;7.67;4.37;;;;;24.20;100771.00;;;;5025758;28;20352;-72
2023/10/11 13:13:01;;;;;;;8.43;5.20;;;;;24.30;100768.00;;;;5021151;28;20233;-70
2023/10/11 13:16:00;;;;;;;10.43;5.15;;;;;24.30;100769.00;;;;5021233;28;20237;-72
2023/10/11 13:18:46;;;;;;;15.13;4.97;;;;;24.10;100772.00;;;;5026398;28;20348;-72
2023/10/11 13:21:33;;;;;;;11.87;5.03;;;;;24.00;100769.00;;;;5023899;28;20264;-73
2023/10/11 13:24:22;;;;;;;10.63;4.80;;;;;23.80;100776.00;;;;5025394;28;20233;-71
2023/10/11 13:27:09;;;;;;;9.13;4.60;;;;;23.60;100766.00;;;;5028043;28;20217;-72
2023/10/11 13:30:01;;;;;;;9.13;4.45;;;;;23.50;100763.00;;;;5025766;28;20579;-72
2023/10/11 13:32:50;;;;;;;10.53;4.90;;;;;23.40;100756.00;;;;5028616;28;20836;-74
2023/10/11 13:35:36;;;;;;;11.83;5.20;;;;;23.30;100756.00;;;;5019366;28;20229;-71
2023/10/11 13:38:23;;;;;;;14.27;5.47;;;;;23.20;100755.00;;;;5029912;28;20233;-72
2023/10/11 13:41:12;;;;;;;10.50;5.00;;;;;23.00;100748.00;;;;5029287;28;20288;-73
2023/10/11 13:43:59;;;;;;;11.97;4.87;;;;;22.90;100754.00;;;;5022091;28;20244;-73
2023/10/11 13:46:51;;;;;;;14.43;4.70;;;;;22.90;100745.00;;;;5027303;28;20213;-73
2023/10/11 13:49:40;;;;;;;9.80;5.13;;;;;22.90;100751.00;;;;5024999;28;20222;-72
2023/10/11 13:52:27;;;;;;;10.63;4.80;;;;;22.90;100743.00;;;;5019666;28;20609;-71
2023/10/11 13:55:14;;;;;;;10.73;5.50;;;;;22.90;100749.00;;;;5023739;28;20925;-73
2023/10/11 13:58:01;;;;;;;12.83;5.30;;;;;22.90;100742.00;;;;5029634;28;20353;-73
2023/10/11 14:01:13;;;;;;;11.43;5.00;;;;;23.00;100742.00;;;;5028048;28;20300;-74
2023/10/11 14:04:08;;;;;;;12.73;5.10;;;;;23.10;100741.00;;;;5028687;28;20364;-73
2023/10/11 14:07:11;;;;;;;10.83;5.00;;;;;23.20;100740.00;;;;5027993;28;20229;-73
2023/10/11 14:09:58;;;;;;;9.60;5.13;;;;;23.20;100739.00;;;;5026602;28;20692;-73
2023/10/11 14:12:44;;;;;;;7.83;4.37;;;;;23.30;100738.00;;;;5026680;28;20344;-71
2023/10/11 14:15:32;;;;;;;11.63;4.67;;;;;23.20;100736.00;;;;5026487;28;20209;-72
2023/10/11 14:18:20;;;;;;;13.33;4.50;;;;;23.20;100730.00;;;;5028241;28;20280;-70
2023/10/11 14:21:11;;;;;;;9.33;4.30;;;;;23.20;100727.00;;;;5019571;28;20260;-70